Shoukeimaruno.3 — JI3587 — position and weather

sailwx.info

Track history (hours):
 
Tides and Currents Weather Stations Pressure Air Temp Water Temp Dewpoint Dewpoint Depression Visibility Wind Speed Wind Dir Waves Ship Positions

Shoukeimaruno.3

Last reported at 2015-May-24 18:12 UTC. Time now 2015-May-25 05:31 UTC.
Position N 36°42' E 140°55'.

Length 77 m; draft 3.3 m.

Type: Cargo ship. MMSI: 431300325.

Date/timePositionNaut miles runAvg speedWind from/ knotsBaromVisibWave heightAir tempDewpointWater temp
2015-May-24 18:12N 36°42' E 140°55'2910.9
2015-May-24 15:30N 36°13' E 140°48'1111.1
2015-May-24 14:30N 36°03' E 140°50'3210.6
2015-May-24 11:26N 35°31' E 140°45'3912.5
2015-May-24 08:20N 35°01' E 140°13'1012.0
2015-May-24 07:28N 34°56' E 140°03'1210.5
2015-May-24 06:17N 34°53' E 139°48'811.2
2015-May-24 05:33N 35°00' E 139°43'1212.0
2015-May-24 04:33N 35°12' E 139°46'1211.8
2015-May-24 03:33N 35°23' E 139°41'3 2.8
2015-May-24 02:33N 35°24' E 139°37'0 0.0
2015-May-24 01:33N 35°24' E 139°37'0 0.0
2015-May-24 00:33N 35°24' E 139°37'0 0.0
2015-May-23 23:33N 35°24' E 139°37'2 1.7
2015-May-23 22:33N 35°24' E 139°39'0 0.4
2015-May-23 21:31N 35°23' E 139°40'0 0.0
2015-May-23 20:31N 35°23' E 139°40'0 0.0
2015-May-23 19:31N 35°23' E 139°40'0 0.0
2015-May-23 18:31N 35°23' E 139°40'0 0.0
2015-May-23 17:31N 35°23' E 139°40'0 0.0
2015-May-23 16:31N 35°23' E 139°40'0 0.1
2015-May-23 15:32N 35°23' E 139°40'1010.6
2015-May-23 14:33N 35°14' E 139°47'1212.0
2015-May-23 13:33N 35°03' E 139°41'1312.9
2015-May-23 12:32N 34°56' E 139°28'1513.0
2015-May-23 11:24N 34°47' E 139°14'36 2.5
2015-May-22 21:20N 35°04' E 138°36'  
2015-May-19 14:31N 35°00' E 140°12'21 9.0
2015-May-19 12:13N 35°14' E 140°31'  
Track history (hours):
 
Tides and Currents Weather Stations Pressure Air Temp Water Temp Dewpoint Dewpoint Depression Visibility Wind Speed Wind Dir Waves Ship Positions

Shoukeimaruno.3

Last reported at 2015-May-24 18:12 UTC. Time now 2015-May-25 05:31 UTC.
Position N 36°42' E 140°55'.

Length 77 m; draft 3.3 m.

Type: Cargo ship. MMSI: 431300325.

Date/timePositionNaut miles runAvg speedWind from/ knotsBaromVisibWave heightAir tempDewpointWater temp
2015-May-24 18:12N 36°42' E 140°55'2910.9
2015-May-24 15:30N 36°13' E 140°48'1111.1
2015-May-24 14:30N 36°03' E 140°50'3210.6
2015-May-24 11:26N 35°31' E 140°45'3912.5
2015-May-24 08:20N 35°01' E 140°13'1012.0
2015-May-24 07:28N 34°56' E 140°03'1210.5
2015-May-24 06:17N 34°53' E 139°48'811.2
2015-May-24 05:33N 35°00' E 139°43'1212.0
2015-May-24 04:33N 35°12' E 139°46'1211.8
2015-May-24 03:33N 35°23' E 139°41'3 2.8
2015-May-24 02:33N 35°24' E 139°37'0 0.0
2015-May-24 01:33N 35°24' E 139°37'0 0.0
2015-May-24 00:33N 35°24' E 139°37'0 0.0
2015-May-23 23:33N 35°24' E 139°37'2 1.7
2015-May-23 22:33N 35°24' E 139°39'0 0.4
2015-May-23 21:31N 35°23' E 139°40'0 0.0
2015-May-23 20:31N 35°23' E 139°40'0 0.0
2015-May-23 19:31N 35°23' E 139°40'0 0.0
2015-May-23 18:31N 35°23' E 139°40'0 0.0
2015-May-23 17:31N 35°23' E 139°40'0 0.0
2015-May-23 16:31N 35°23' E 139°40'0 0.1
2015-May-23 15:32N 35°23' E 139°40'1010.6
2015-May-23 14:33N 35°14' E 139°47'1212.0
2015-May-23 13:33N 35°03' E 139°41'1312.9
2015-May-23 12:32N 34°56' E 139°28'1513.0
2015-May-23 11:24N 34°47' E 139°14'36 2.5
2015-May-22 21:20N 35°04' E 138°36'  
2015-May-19 14:31N 35°00' E 140°12'21 9.0
2015-May-19 12:13N 35°14' E 140°31'  

Dump ship's entire track history